sensor_id;sensor_type;location;lat;lon;timestamp;P1;durP1;ratioP1;P2;durP2;ratioP2
52742;SDS011;55583;53.012;6.556;2023-04-16T00:01:32;121.13;;;43.10;;
52742;SDS011;55583;53.012;6.556;2023-04-16T00:03:57;122.68;;;42.20;;
52742;SDS011;55583;53.012;6.556;2023-04-16T00:06:23;122.82;;;39.40;;
52742;SDS011;55583;53.012;6.556;2023-04-16T00:08:48;107.55;;;39.30;;
52742;SDS011;55583;53.012;6.556;2023-04-16T00:11:15;109.18;;;39.65;;
52742;SDS011;55583;53.012;6.556;2023-04-16T00:13:41;122.82;;;41.75;;
52742;SDS011;55583;53.012;6.556;2023-04-16T00:16:07;103.93;;;40.88;;
52742;SDS011;55583;53.012;6.556;2023-04-16T00:18:33;115.53;;;41.20;;
52742;SDS011;55583;53.012;6.556;2023-04-16T00:20:58;109.47;;;40.22;;
52742;SDS011;55583;53.012;6.556;2023-04-16T00:23:24;105.57;;;38.15;;
52742;SDS011;55583;53.012;6.556;2023-04-16T00:25:50;121.43;;;40.85;;
52742;SDS011;55583;53.012;6.556;2023-04-16T00:28:15;114.70;;;40.85;;
52742;SDS011;55583;53.012;6.556;2023-04-16T00:30:41;125.35;;;40.35;;
52742;SDS011;55583;53.012;6.556;2023-04-16T00:33:07;119.55;;;40.25;;
52742;SDS011;55583;53.012;6.556;2023-04-16T00:35:33;122.10;;;43.00;;
52742;SDS011;55583;53.012;6.556;2023-04-16T00:37:58;113.82;;;39.78;;
52742;SDS011;55583;53.012;6.556;2023-04-16T00:40:27;125.78;;;40.38;;
52742;SDS011;55583;53.012;6.556;2023-04-16T00:42:53;147.20;;;42.83;;
52742;SDS011;55583;53.012;6.556;2023-04-16T00:45:19;107.05;;;40.53;;
52742;SDS011;55583;53.012;6.556;2023-04-16T00:47:45;128.93;;;43.45;;
52742;SDS011;55583;53.012;6.556;2023-04-16T00:50:11;129.63;;;39.53;;
52742;SDS011;55583;53.012;6.556;2023-04-16T00:52:37;130.75;;;43.85;;
52742;SDS011;55583;53.012;6.556;2023-04-16T00:55:03;127.60;;;41.47;;
52742;SDS011;55583;53.012;6.556;2023-04-16T00:57:31;119.10;;;38.92;;
52742;SDS011;55583;53.012;6.556;2023-04-16T00:59:56;116.30;;;41.88;;
52742;SDS011;55583;53.012;6.556;2023-04-16T01:02:22;129.43;;;40.75;;
52742;SDS011;55583;53.012;6.556;2023-04-16T01:04:48;117.13;;;39.55;;
52742;SDS011;55583;53.012;6.556;2023-04-16T01:07:15;126.63;;;40.63;;
52742;SDS011;55583;53.012;6.556;2023-04-16T01:09:41;123.20;;;41.13;;
52742;SDS011;55583;53.012;6.556;2023-04-16T01:12:07;122.00;;;41.78;;
52742;SDS011;55583;53.012;6.556;2023-04-16T01:14:32;146.27;;;43.13;;
52742;SDS011;55583;53.012;6.556;2023-04-16T01:17:00;113.53;;;40.05;;
52742;SDS011;55583;53.012;6.556;2023-04-16T01:19:27;134.70;;;44.67;;
52742;SDS011;55583;53.012;6.556;2023-04-16T01:21:55;103.57;;;40.75;;
52742;SDS011;55583;53.012;6.556;2023-04-16T01:24:21;120.18;;;39.00;;
52742;SDS011;55583;53.012;6.556;2023-04-16T01:26:47;138.00;;;42.97;;
52742;SDS011;55583;53.012;6.556;2023-04-16T01:29:13;126.78;;;43.10;;
52742;SDS011;55583;53.012;6.556;2023-04-16T01:31:38;120.18;;;40.47;;
52742;SDS011;55583;53.012;6.556;2023-04-16T01:34:04;121.85;;;40.22;;
52742;SDS011;55583;53.012;6.556;2023-04-16T01:36:30;114.68;;;41.65;;
52742;SDS011;55583;53.012;6.556;2023-04-16T01:38:55;121.13;;;39.90;;
52742;SDS011;55583;53.012;6.556;2023-04-16T01:41:21;118.05;;;38.40;;
52742;SDS011;55583;53.012;6.556;2023-04-16T01:43:46;127.45;;;40.50;;
52742;SDS011;55583;53.012;6.556;2023-04-16T01:46:19;122.90;;;40.78;;
52742;SDS011;55583;53.012;6.556;2023-04-16T01:48:53;113.82;;;41.63;;
52742;SDS011;55583;53.012;6.556;2023-04-16T01:51:19;115.95;;;42.03;;
52742;SDS011;55583;53.012;6.556;2023-04-16T01:53:45;109.70;;;43.00;;
52742;SDS011;55583;53.012;6.556;2023-04-16T01:56:11;119.57;;;41.65;;
52742;SDS011;55583;53.012;6.556;2023-04-16T01:58:36;85.88;;;37.97;;
52742;SDS011;55583;53.012;6.556;2023-04-16T02:01:02;108.95;;;43.78;;
52742;SDS011;55583;53.012;6.556;2023-04-16T02:03:29;97.22;;;38.88;;
52742;SDS011;55583;53.012;6.556;2023-04-16T02:05:55;109.82;;;43.97;;
52742;SDS011;55583;53.012;6.556;2023-04-16T02:08:21;96.63;;;40.88;;
52742;SDS011;55583;53.012;6.556;2023-04-16T02:10:48;94.30;;;41.00;;
52742;SDS011;55583;53.012;6.556;2023-04-16T02:13:14;98.47;;;40.97;;
52742;SDS011;55583;53.012;6.556;2023-04-16T02:15:44;96.53;;;42.80;;
52742;SDS011;55583;53.012;6.556;2023-04-16T02:18:11;101.30;;;42.63;;
52742;SDS011;55583;53.012;6.556;2023-04-16T02:20:40;99.85;;;42.63;;
52742;SDS011;55583;53.012;6.556;2023-04-16T02:23:06;116.70;;;42.17;;
52742;SDS011;55583;53.012;6.556;2023-04-16T02:25:36;120.28;;;44.95;;
52742;SDS011;55583;53.012;6.556;2023-04-16T02:28:04;112.47;;;44.10;;
52742;SDS011;55583;53.012;6.556;2023-04-16T02:30:30;131.45;;;45.08;;
52742;SDS011;55583;53.012;6.556;2023-04-16T02:32:56;127.80;;;44.60;;
52742;SDS011;55583;53.012;6.556;2023-04-16T02:35:21;127.65;;;43.25;;
52742;SDS011;55583;53.012;6.556;2023-04-16T02:37:47;128.73;;;43.58;;
52742;SDS011;55583;53.012;6.556;2023-04-16T02:40:12;129.38;;;44.45;;
52742;SDS011;55583;53.012;6.556;2023-04-16T02:42:38;166.23;;;46.42;;
52742;SDS011;55583;53.012;6.556;2023-04-16T02:45:04;129.48;;;45.30;;
52742;SDS011;55583;53.012;6.556;2023-04-16T02:47:30;143.50;;;43.42;;
52742;SDS011;55583;53.012;6.556;2023-04-16T02:49:56;145.63;;;46.13;;
52742;SDS011;55583;53.012;6.556;2023-04-16T02:52:21;137.65;;;45.88;;
52742;SDS011;55583;53.012;6.556;2023-04-16T02:54:47;126.57;;;45.00;;
52742;SDS011;55583;53.012;6.556;2023-04-16T02:57:12;138.23;;;45.38;;
52742;SDS011;55583;53.012;6.556;2023-04-16T02:59:38;140.48;;;46.90;;
52742;SDS011;55583;53.012;6.556;2023-04-16T03:02:04;127.55;;;45.05;;
52742;SDS011;55583;53.012;6.556;2023-04-16T03:04:31;151.45;;;45.75;;
52742;SDS011;55583;53.012;6.556;2023-04-16T03:06:57;132.93;;;46.05;;
52742;SDS011;55583;53.012;6.556;2023-04-16T03:09:22;132.32;;;45.47;;
52742;SDS011;55583;53.012;6.556;2023-04-16T03:11:48;135.90;;;47.83;;
52742;SDS011;55583;53.012;6.556;2023-04-16T03:14:14;144.57;;;46.28;;
52742;SDS011;55583;53.012;6.556;2023-04-16T03:16:39;139.68;;;47.20;;
52742;SDS011;55583;53.012;6.556;2023-04-16T03:19:05;135.63;;;45.92;;
52742;SDS011;55583;53.012;6.556;2023-04-16T03:21:31;155.63;;;49.42;;
52742;SDS011;55583;53.012;6.556;2023-04-16T03:23:57;145.23;;;48.00;;
52742;SDS011;55583;53.012;6.556;2023-04-16T03:26:22;144.93;;;47.97;;
52742;SDS011;55583;53.012;6.556;2023-04-16T03:28:48;167.63;;;50.13;;
52742;SDS011;55583;53.012;6.556;2023-04-16T03:31:14;137.70;;;46.08;;
52742;SDS011;55583;53.012;6.556;2023-04-16T03:33:40;141.45;;;49.03;;
52742;SDS011;55583;53.012;6.556;2023-04-16T03:36:06;137.65;;;47.45;;
52742;SDS011;55583;53.012;6.556;2023-04-16T03:38:32;116.90;;;43.65;;
52742;SDS011;55583;53.012;6.556;2023-04-16T03:40:58;126.78;;;43.88;;
52742;SDS011;55583;53.012;6.556;2023-04-16T03:43:23;134.98;;;45.25;;
52742;SDS011;55583;53.012;6.556;2023-04-16T03:45:49;140.75;;;46.13;;
52742;SDS011;55583;53.012;6.556;2023-04-16T03:48:15;127.60;;;45.03;;
52742;SDS011;55583;53.012;6.556;2023-04-16T03:50:44;128.82;;;43.42;;
52742;SDS011;55583;53.012;6.556;2023-04-16T03:53:10;112.07;;;41.67;;
52742;SDS011;55583;53.012;6.556;2023-04-16T03:55:36;119.88;;;43.55;;
52742;SDS011;55583;53.012;6.556;2023-04-16T03:58:02;127.07;;;46.10;;
52742;SDS011;55583;53.012;6.556;2023-04-16T04:00:28;130.75;;;42.83;;
52742;SDS011;55583;53.012;6.556;2023-04-16T04:02:54;112.03;;;43.75;;
52742;SDS011;55583;53.012;6.556;2023-04-16T04:05:20;131.45;;;44.10;;
52742;SDS011;55583;53.012;6.556;2023-04-16T04:07:46;117.95;;;43.80;;
52742;SDS011;55583;53.012;6.556;2023-04-16T04:10:12;131.18;;;45.13;;
52742;SDS011;55583;53.012;6.556;2023-04-16T04:12:37;126.13;;;43.40;;
52742;SDS011;55583;53.012;6.556;2023-04-16T04:15:03;120.82;;;42.42;;
52742;SDS011;55583;53.012;6.556;2023-04-16T04:17:29;124.35;;;41.05;;
52742;SDS011;55583;53.012;6.556;2023-04-16T04:19:55;106.35;;;39.45;;
52742;SDS011;55583;53.012;6.556;2023-04-16T04:22:21;136.45;;;45.70;;
52742;SDS011;55583;53.012;6.556;2023-04-16T04:24:46;116.03;;;41.65;;
52742;SDS011;55583;53.012;6.556;2023-04-16T04:27:12;120.95;;;42.53;;
52742;SDS011;55583;53.012;6.556;2023-04-16T04:29:37;112.32;;;42.25;;
52742;SDS011;55583;53.012;6.556;2023-04-16T04:32:03;108.90;;;41.38;;
52742;SDS011;55583;53.012;6.556;2023-04-16T04:34:29;123.75;;;43.85;;
52742;SDS011;55583;53.012;6.556;2023-04-16T04:36:54;123.03;;;40.90;;
52742;SDS011;55583;53.012;6.556;2023-04-16T04:39:20;113.00;;;44.55;;
52742;SDS011;55583;53.012;6.556;2023-04-16T04:41:46;105.85;;;42.03;;
52742;SDS011;55583;53.012;6.556;2023-04-16T04:44:12;105.85;;;40.85;;
52742;SDS011;55583;53.012;6.556;2023-04-16T04:46:38;120.07;;;40.63;;
52742;SDS011;55583;53.012;6.556;2023-04-16T04:49:04;107.40;;;40.88;;
52742;SDS011;55583;53.012;6.556;2023-04-16T04:51:30;92.25;;;37.08;;
52742;SDS011;55583;53.012;6.556;2023-04-16T04:53:56;118.07;;;43.80;;
52742;SDS011;55583;53.012;6.556;2023-04-16T04:56:22;114.75;;;40.58;;
52742;SDS011;55583;53.012;6.556;2023-04-16T04:58:48;126.75;;;43.28;;
52742;SDS011;55583;53.012;6.556;2023-04-16T05:01:15;113.82;;;42.13;;
52742;SDS011;55583;53.012;6.556;2023-04-16T05:03:40;109.50;;;42.42;;
52742;SDS011;55583;53.012;6.556;2023-04-16T05:06:06;111.70;;;43.08;;
52742;SDS011;55583;53.012;6.556;2023-04-16T05:08:32;116.75;;;41.35;;
52742;SDS011;55583;53.012;6.556;2023-04-16T05:10:57;114.15;;;43.55;;
52742;SDS011;55583;53.012;6.556;2023-04-16T05:13:23;119.07;;;43.33;;
52742;SDS011;55583;53.012;6.556;2023-04-16T05:15:49;124.28;;;45.90;;
52742;SDS011;55583;53.012;6.556;2023-04-16T05:18:17;116.57;;;42.90;;
52742;SDS011;55583;53.012;6.556;2023-04-16T05:20:43;119.47;;;40.88;;
52742;SDS011;55583;53.012;6.556;2023-04-16T05:23:08;107.43;;;41.35;;
52742;SDS011;55583;53.012;6.556;2023-04-16T05:25:34;117.57;;;39.83;;
52742;SDS011;55583;53.012;6.556;2023-04-16T05:28:00;115.50;;;42.60;;
52742;SDS011;55583;53.012;6.556;2023-04-16T05:30:25;105.75;;;41.00;;
52742;SDS011;55583;53.012;6.556;2023-04-16T05:32:51;94.18;;;40.78;;
52742;SDS011;55583;53.012;6.556;2023-04-16T05:35:17;100.70;;;40.67;;
52742;SDS011;55583;53.012;6.556;2023-04-16T05:37:42;115.93;;;40.97;;
52742;SDS011;55583;53.012;6.556;2023-04-16T05:40:08;124.47;;;40.83;;
52742;SDS011;55583;53.012;6.556;2023-04-16T05:42:34;109.05;;;39.97;;
52742;SDS011;55583;53.012;6.556;2023-04-16T05:45:01;106.70;;;39.80;;
52742;SDS011;55583;53.012;6.556;2023-04-16T05:47:28;101.05;;;38.75;;
52742;SDS011;55583;53.012;6.556;2023-04-16T05:49:54;100.88;;;37.97;;
52742;SDS011;55583;53.012;6.556;2023-04-16T05:52:19;104.15;;;39.85;;
52742;SDS011;55583;53.012;6.556;2023-04-16T05:54:45;94.63;;;38.75;;
52742;SDS011;55583;53.012;6.556;2023-04-16T05:57:12;90.70;;;35.97;;
52742;SDS011;55583;53.012;6.556;2023-04-16T05:59:38;103.20;;;35.53;;
52742;SDS011;55583;53.012;6.556;2023-04-16T06:02:03;85.50;;;34.67;;
52742;SDS011;55583;53.012;6.556;2023-04-16T06:04:29;76.70;;;34.60;;
52742;SDS011;55583;53.012;6.556;2023-04-16T06:06:55;90.70;;;35.20;;
52742;SDS011;55583;53.012;6.556;2023-04-16T06:09:20;94.03;;;36.83;;
52742;SDS011;55583;53.012;6.556;2023-04-16T06:11:46;86.70;;;33.33;;
52742;SDS011;55583;53.012;6.556;2023-04-16T06:14:12;76.05;;;34.65;;
52742;SDS011;55583;53.012;6.556;2023-04-16T06:16:38;86.60;;;33.58;;
52742;SDS011;55583;53.012;6.556;2023-04-16T06:19:04;73.32;;;32.70;;
52742;SDS011;55583;53.012;6.556;2023-04-16T06:21:29;89.13;;;36.15;;
52742;SDS011;55583;53.012;6.556;2023-04-16T06:23:55;90.75;;;34.80;;
52742;SDS011;55583;53.012;6.556;2023-04-16T06:26:21;71.03;;;31.67;;
52742;SDS011;55583;53.012;6.556;2023-04-16T06:28:47;75.32;;;33.47;;
52742;SDS011;55583;53.012;6.556;2023-04-16T06:31:13;73.75;;;32.70;;
52742;SDS011;55583;53.012;6.556;2023-04-16T06:33:38;89.95;;;32.78;;
52742;SDS011;55583;53.012;6.556;2023-04-16T06:36:04;80.38;;;35.08;;
52742;SDS011;55583;53.012;6.556;2023-04-16T06:38:30;90.05;;;32.67;;
52742;SDS011;55583;53.012;6.556;2023-04-16T06:40:55;72.97;;;31.27;;
52742;SDS011;55583;53.012;6.556;2023-04-16T06:43:22;73.03;;;30.92;;
52742;SDS011;55583;53.012;6.556;2023-04-16T06:45:48;67.40;;;32.17;;
52742;SDS011;55583;53.012;6.556;2023-04-16T06:48:14;79.15;;;32.08;;
52742;SDS011;55583;53.012;6.556;2023-04-16T06:50:39;67.78;;;31.50;;
52742;SDS011;55583;53.012;6.556;2023-04-16T06:53:05;77.22;;;31.38;;
52742;SDS011;55583;53.012;6.556;2023-04-16T06:55:31;78.15;;;31.30;;
52742;SDS011;55583;53.012;6.556;2023-04-16T06:57:56;65.05;;;27.52;;
52742;SDS011;55583;53.012;6.556;2023-04-16T07:00:22;56.80;;;28.88;;
52742;SDS011;55583;53.012;6.556;2023-04-16T07:02:48;68.28;;;29.17;;
52742;SDS011;55583;53.012;6.556;2023-04-16T07:05:13;73.70;;;30.48;;
52742;SDS011;55583;53.012;6.556;2023-04-16T07:07:39;68.65;;;30.42;;
52742;SDS011;55583;53.012;6.556;2023-04-16T07:10:04;63.55;;;28.33;;
52742;SDS011;55583;53.012;6.556;2023-04-16T07:12:31;65.13;;;29.75;;
52742;SDS011;55583;53.012;6.556;2023-04-16T07:14:57;60.85;;;27.63;;
52742;SDS011;55583;53.012;6.556;2023-04-16T07:17:22;60.92;;;26.83;;
52742;SDS011;55583;53.012;6.556;2023-04-16T07:19:49;57.15;;;25.35;;
52742;SDS011;55583;53.012;6.556;2023-04-16T07:22:15;66.45;;;27.83;;
52742;SDS011;55583;53.012;6.556;2023-04-16T07:24:40;58.42;;;25.42;;
52742;SDS011;55583;53.012;6.556;2023-04-16T07:27:06;63.72;;;24.88;;
52742;SDS011;55583;53.012;6.556;2023-04-16T07:29:32;57.67;;;25.80;;
52742;SDS011;55583;53.012;6.556;2023-04-16T07:31:57;69.15;;;24.88;;
52742;SDS011;55583;53.012;6.556;2023-04-16T07:34:23;66.47;;;23.83;;
52742;SDS011;55583;53.012;6.556;2023-04-16T07:36:48;65.80;;;24.35;;
52742;SDS011;55583;53.012;6.556;2023-04-16T07:39:14;65.68;;;23.17;;
52742;SDS011;55583;53.012;6.556;2023-04-16T07:41:40;50.95;;;22.58;;
52742;SDS011;55583;53.012;6.556;2023-04-16T07:44:05;72.65;;;26.00;;
52742;SDS011;55583;53.012;6.556;2023-04-16T07:46:31;68.50;;;24.17;;
52742;SDS011;55583;53.012;6.556;2023-04-16T07:48:57;61.25;;;25.88;;
52742;SDS011;55583;53.012;6.556;2023-04-16T07:51:23;64.13;;;25.45;;
52742;SDS011;55583;53.012;6.556;2023-04-16T07:53:48;57.30;;;24.52;;
52742;SDS011;55583;53.012;6.556;2023-04-16T07:56:14;67.68;;;23.45;;
52742;SDS011;55583;53.012;6.556;2023-04-16T07:58:39;72.63;;;26.50;;
52742;SDS011;55583;53.012;6.556;2023-04-16T08:01:05;57.17;;;24.55;;
52742;SDS011;55583;53.012;6.556;2023-04-16T08:03:31;66.97;;;26.23;;
52742;SDS011;55583;53.012;6.556;2023-04-16T08:05:56;52.95;;;24.13;;
52742;SDS011;55583;53.012;6.556;2023-04-16T08:08:22;61.85;;;24.27;;
52742;SDS011;55583;53.012;6.556;2023-04-16T08:10:48;57.25;;;22.92;;
52742;SDS011;55583;53.012;6.556;2023-04-16T08:13:14;61.20;;;25.38;;
52742;SDS011;55583;53.012;6.556;2023-04-16T08:15:39;61.08;;;24.77;;
52742;SDS011;55583;53.012;6.556;2023-04-16T08:18:05;67.50;;;25.77;;
52742;SDS011;55583;53.012;6.556;2023-04-16T08:20:36;65.60;;;24.45;;
52742;SDS011;55583;53.012;6.556;2023-04-16T08:23:02;60.60;;;23.15;;
52742;SDS011;55583;53.012;6.556;2023-04-16T08:25:28;61.40;;;22.83;;
52742;SDS011;55583;53.012;6.556;2023-04-16T08:27:54;61.38;;;22.45;;
52742;SDS011;55583;53.012;6.556;2023-04-16T08:30:19;43.97;;;20.45;;
52742;SDS011;55583;53.012;6.556;2023-04-16T08:32:45;51.35;;;21.42;;
52742;SDS011;55583;53.012;6.556;2023-04-16T08:35:11;56.10;;;22.42;;
52742;SDS011;55583;53.012;6.556;2023-04-16T08:37:37;52.45;;;19.10;;
52742;SDS011;55583;53.012;6.556;2023-04-16T08:40:02;41.30;;;18.70;;
52742;SDS011;55583;53.012;6.556;2023-04-16T08:45:08;45.72;;;21.25;;
52742;SDS011;55583;53.012;6.556;2023-04-16T08:47:40;39.37;;;19.27;;
52742;SDS011;55583;53.012;6.556;2023-04-16T08:50:10;36.03;;;18.17;;
52742;SDS011;55583;53.012;6.556;2023-04-16T08:52:50;41.40;;;17.67;;
52742;SDS011;55583;53.012;6.556;2023-04-16T08:55:18;39.72;;;17.40;;
52742;SDS011;55583;53.012;6.556;2023-04-16T08:57:53;44.03;;;16.65;;
52742;SDS011;55583;53.012;6.556;2023-04-16T09:00:22;36.13;;;16.75;;
52742;SDS011;55583;53.012;6.556;2023-04-16T09:02:48;39.17;;;17.17;;
52742;SDS011;55583;53.012;6.556;2023-04-16T09:05:15;37.17;;;17.45;;
52742;SDS011;55583;53.012;6.556;2023-04-16T09:07:45;38.75;;;16.38;;
52742;SDS011;55583;53.012;6.556;2023-04-16T09:10:13;35.80;;;16.05;;
52742;SDS011;55583;53.012;6.556;2023-04-16T09:12:40;38.20;;;15.02;;
52742;SDS011;55583;53.012;6.556;2023-04-16T09:15:06;34.50;;;16.10;;
52742;SDS011;55583;53.012;6.556;2023-04-16T09:17:34;36.13;;;14.63;;
52742;SDS011;55583;53.012;6.556;2023-04-16T09:20:00;37.30;;;15.50;;
52742;SDS011;55583;53.012;6.556;2023-04-16T09:22:29;36.25;;;15.70;;
52742;SDS011;55583;53.012;6.556;2023-04-16T09:24:55;24.65;;;13.63;;
52742;SDS011;55583;53.012;6.556;2023-04-16T09:27:21;37.50;;;17.90;;
52742;SDS011;55583;53.012;6.556;2023-04-16T09:29:48;34.28;;;14.60;;
52742;SDS011;55583;53.012;6.556;2023-04-16T09:32:13;26.67;;;14.93;;
52742;SDS011;55583;53.012;6.556;2023-04-16T09:34:58;28.33;;;14.38;;
52742;SDS011;55583;53.012;6.556;2023-04-16T09:37:25;30.23;;;15.15;;
52742;SDS011;55583;53.012;6.556;2023-04-16T09:40:00;27.60;;;14.23;;
52742;SDS011;55583;53.012;6.556;2023-04-16T09:42:28;29.75;;;13.93;;
52742;SDS011;55583;53.012;6.556;2023-04-16T09:44:59;31.92;;;14.35;;
52742;SDS011;55583;53.012;6.556;2023-04-16T09:47:25;30.73;;;13.48;;
52742;SDS011;55583;53.012;6.556;2023-04-16T09:50:02;30.92;;;13.52;;
52742;SDS011;55583;53.012;6.556;2023-04-16T09:52:28;28.15;;;13.15;;
52742;SDS011;55583;53.012;6.556;2023-04-16T09:54:54;26.63;;;13.75;;
52742;SDS011;55583;53.012;6.556;2023-04-16T09:57:20;28.13;;;13.27;;
52742;SDS011;55583;53.012;6.556;2023-04-16T09:59:54;25.90;;;13.35;;
52742;SDS011;55583;53.012;6.556;2023-04-16T10:02:28;26.80;;;14.20;;
52742;SDS011;55583;53.012;6.556;2023-04-16T10:04:55;22.48;;;13.40;;
52742;SDS011;55583;53.012;6.556;2023-04-16T10:07:22;27.27;;;14.02;;
52742;SDS011;55583;53.012;6.556;2023-04-16T10:09:52;23.77;;;13.43;;
52742;SDS011;55583;53.012;6.556;2023-04-16T10:12:17;27.77;;;12.73;;
52742;SDS011;55583;53.012;6.556;2023-04-16T10:14:43;23.02;;;12.95;;
52742;SDS011;55583;53.012;6.556;2023-04-16T10:17:09;23.33;;;12.75;;
52742;SDS011;55583;53.012;6.556;2023-04-16T10:19:35;26.65;;;13.52;;
52742;SDS011;55583;53.012;6.556;2023-04-16T10:22:01;24.02;;;12.65;;
52742;SDS011;55583;53.012;6.556;2023-04-16T10:24:28;24.52;;;13.40;;
52742;SDS011;55583;53.012;6.556;2023-04-16T10:26:55;24.35;;;12.18;;
52742;SDS011;55583;53.012;6.556;2023-04-16T10:29:21;22.83;;;12.23;;
52742;SDS011;55583;53.012;6.556;2023-04-16T10:31:47;25.13;;;12.35;;
52742;SDS011;55583;53.012;6.556;2023-04-16T10:34:14;21.92;;;13.23;;
52742;SDS011;55583;53.012;6.556;2023-04-16T10:36:40;20.45;;;12.35;;
52742;SDS011;55583;53.012;6.556;2023-04-16T10:39:10;23.98;;;12.13;;
52742;SDS011;55583;53.012;6.556;2023-04-16T10:41:36;22.75;;;13.25;;
52742;SDS011;55583;53.012;6.556;2023-04-16T10:44:08;27.25;;;13.60;;
52742;SDS011;55583;53.012;6.556;2023-04-16T10:46:38;19.33;;;12.43;;
52742;SDS011;55583;53.012;6.556;2023-04-16T10:52:00;25.02;;;12.55;;
52742;SDS011;55583;53.012;6.556;2023-04-16T10:54:33;21.27;;;12.02;;
52742;SDS011;55583;53.012;6.556;2023-04-16T10:57:14;22.27;;;11.70;;
52742;SDS011;55583;53.012;6.556;2023-04-16T10:59:42;20.23;;;12.10;;
52742;SDS011;55583;53.012;6.556;2023-04-16T11:02:17;19.20;;;11.23;;
52742;SDS011;55583;53.012;6.556;2023-04-16T11:04:43;19.58;;;11.60;;
52742;SDS011;55583;53.012;6.556;2023-04-16T11:12:36;23.90;;;12.43;;
52742;SDS011;55583;53.012;6.556;2023-04-16T11:15:07;23.52;;;11.50;;
52742;SDS011;55583;53.012;6.556;2023-04-16T11:17:38;20.38;;;11.75;;
52742;SDS011;55583;53.012;6.556;2023-04-16T11:20:17;19.80;;;10.82;;
52742;SDS011;55583;53.012;6.556;2023-04-16T11:22:50;20.30;;;11.20;;
52742;SDS011;55583;53.012;6.556;2023-04-16T11:25:24;22.45;;;11.73;;
52742;SDS011;55583;53.012;6.556;2023-04-16T11:27:51;28.08;;;11.98;;
52742;SDS011;55583;53.012;6.556;2023-04-16T11:30:18;23.85;;;12.43;;
52742;SDS011;55583;53.012;6.556;2023-04-16T11:32:52;24.52;;;12.50;;
52742;SDS011;55583;53.012;6.556;2023-04-16T11:35:18;19.95;;;12.52;;
52742;SDS011;55583;53.012;6.556;2023-04-16T11:37:44;23.48;;;12.55;;
52742;SDS011;55583;53.012;6.556;2023-04-16T11:40:10;25.52;;;12.73;;
52742;SDS011;55583;53.012;6.556;2023-04-16T11:42:37;27.15;;;12.73;;
52742;SDS011;55583;53.012;6.556;2023-04-16T11:45:08;25.45;;;14.20;;
52742;SDS011;55583;53.012;6.556;2023-04-16T11:50:30;26.20;;;13.00;;
52742;SDS011;55583;53.012;6.556;2023-04-16T11:52:57;33.08;;;13.20;;
52742;SDS011;55583;53.012;6.556;2023-04-16T11:55:29;25.27;;;11.63;;
52742;SDS011;55583;53.012;6.556;2023-04-16T11:57:55;27.75;;;13.60;;
52742;SDS011;55583;53.012;6.556;2023-04-16T12:00:20;28.45;;;12.90;;
52742;SDS011;55583;53.012;6.556;2023-04-16T12:02:51;27.13;;;13.63;;
52742;SDS011;55583;53.012;6.556;2023-04-16T12:05:25;20.00;;;11.82;;
52742;SDS011;55583;53.012;6.556;2023-04-16T12:07:55;27.05;;;12.45;;
52742;SDS011;55583;53.012;6.556;2023-04-16T12:10:22;25.13;;;12.98;;
52742;SDS011;55583;53.012;6.556;2023-04-16T12:12:48;25.83;;;12.20;;
52742;SDS011;55583;53.012;6.556;2023-04-16T12:15:14;22.20;;;13.55;;
52742;SDS011;55583;53.012;6.556;2023-04-16T12:17:40;18.33;;;11.60;;
52742;SDS011;55583;53.012;6.556;2023-04-16T12:20:09;25.75;;;13.75;;
52742;SDS011;55583;53.012;6.556;2023-04-16T12:22:42;25.77;;;13.18;;
52742;SDS011;55583;53.012;6.556;2023-04-16T12:25:10;28.95;;;13.73;;
52742;SDS011;55583;53.012;6.556;2023-04-16T12:27:46;23.45;;;13.18;;
52742;SDS011;55583;53.012;6.556;2023-04-16T12:30:13;23.25;;;13.65;;
52742;SDS011;55583;53.012;6.556;2023-04-16T12:32:40;24.95;;;12.68;;
52742;SDS011;55583;53.012;6.556;2023-04-16T12:35:08;20.55;;;12.98;;
52742;SDS011;55583;53.012;6.556;2023-04-16T12:37:34;23.08;;;13.23;;
52742;SDS011;55583;53.012;6.556;2023-04-16T12:40:01;21.27;;;13.13;;
52742;SDS011;55583;53.012;6.556;2023-04-16T12:42:29;20.27;;;12.52;;
52742;SDS011;55583;53.012;6.556;2023-04-16T12:45:00;25.13;;;13.27;;
52742;SDS011;55583;53.012;6.556;2023-04-16T12:47:26;23.88;;;12.88;;
52742;SDS011;55583;53.012;6.556;2023-04-16T12:49:52;23.67;;;13.48;;
52742;SDS011;55583;53.012;6.556;2023-04-16T12:52:18;24.95;;;13.07;;
52742;SDS011;55583;53.012;6.556;2023-04-16T12:54:43;22.20;;;13.43;;
52742;SDS011;55583;53.012;6.556;2023-04-16T12:57:09;25.02;;;13.95;;
52742;SDS011;55583;53.012;6.556;2023-04-16T12:59:36;22.38;;;12.48;;
52742;SDS011;55583;53.012;6.556;2023-04-16T13:02:01;24.98;;;12.68;;
52742;SDS011;55583;53.012;6.556;2023-04-16T13:04:27;24.95;;;13.95;;
52742;SDS011;55583;53.012;6.556;2023-04-16T13:06:52;28.45;;;14.63;;
52742;SDS011;55583;53.012;6.556;2023-04-16T13:09:18;27.60;;;14.18;;
52742;SDS011;55583;53.012;6.556;2023-04-16T13:11:44;27.30;;;13.68;;
52742;SDS011;55583;53.012;6.556;2023-04-16T13:14:10;24.10;;;14.52;;
52742;SDS011;55583;53.012;6.556;2023-04-16T13:16:35;24.20;;;13.52;;
52742;SDS011;55583;53.012;6.556;2023-04-16T13:19:02;27.02;;;14.20;;
52742;SDS011;55583;53.012;6.556;2023-04-16T13:21:29;24.63;;;14.65;;
52742;SDS011;55583;53.012;6.556;2023-04-16T13:23:55;25.98;;;15.82;;
52742;SDS011;55583;53.012;6.556;2023-04-16T13:26:21;24.48;;;14.48;;
52742;SDS011;55583;53.012;6.556;2023-04-16T13:28:46;27.77;;;13.95;;
52742;SDS011;55583;53.012;6.556;2023-04-16T13:31:12;26.75;;;14.80;;
52742;SDS011;55583;53.012;6.556;2023-04-16T13:33:39;26.70;;;13.52;;
52742;SDS011;55583;53.012;6.556;2023-04-16T13:36:05;32.90;;;14.95;;
52742;SDS011;55583;53.012;6.556;2023-04-16T13:38:31;28.63;;;15.05;;
52742;SDS011;55583;53.012;6.556;2023-04-16T13:40:56;26.85;;;14.02;;
52742;SDS011;55583;53.012;6.556;2023-04-16T13:43:22;26.73;;;14.77;;
52742;SDS011;55583;53.012;6.556;2023-04-16T13:45:48;26.85;;;14.00;;
52742;SDS011;55583;53.012;6.556;2023-04-16T13:48:13;22.90;;;13.30;;
52742;SDS011;55583;53.012;6.556;2023-04-16T13:50:39;21.40;;;13.52;;
52742;SDS011;55583;53.012;6.556;2023-04-16T13:53:05;22.58;;;13.95;;
52742;SDS011;55583;53.012;6.556;2023-04-16T13:55:30;29.10;;;14.35;;
52742;SDS011;55583;53.012;6.556;2023-04-16T13:57:56;24.00;;;13.38;;
52742;SDS011;55583;53.012;6.556;2023-04-16T14:00:22;22.35;;;13.77;;
52742;SDS011;55583;53.012;6.556;2023-04-16T14:02:49;25.67;;;15.18;;
52742;SDS011;55583;53.012;6.556;2023-04-16T14:05:15;28.00;;;14.38;;
52742;SDS011;55583;53.012;6.556;2023-04-16T14:07:40;28.98;;;15.85;;
52742;SDS011;55583;53.012;6.556;2023-04-16T14:10:06;30.95;;;15.15;;
52742;SDS011;55583;53.012;6.556;2023-04-16T14:12:32;30.38;;;14.88;;
52742;SDS011;55583;53.012;6.556;2023-04-16T14:14:58;32.05;;;14.98;;
52742;SDS011;55583;53.012;6.556;2023-04-16T14:17:24;35.67;;;16.70;;
52742;SDS011;55583;53.012;6.556;2023-04-16T14:19:49;35.08;;;14.57;;
52742;SDS011;55583;53.012;6.556;2023-04-16T14:22:15;29.05;;;15.60;;
52742;SDS011;55583;53.012;6.556;2023-04-16T14:24:42;28.50;;;15.73;;
52742;SDS011;55583;53.012;6.556;2023-04-16T14:27:08;29.00;;;14.90;;